createdAt,value
2023-05-19T00:02:06.008Z,11.20
2023-05-19T00:04:33.590Z,11.20
2023-05-19T00:07:01.418Z,11.20
2023-05-19T00:09:28.464Z,11.20
2023-05-19T00:11:56.633Z,11.20
2023-05-19T00:14:23.654Z,11.20
2023-05-19T00:16:50.663Z,11.20
2023-05-19T00:19:17.776Z,11.20
2023-05-19T00:21:44.434Z,11.20
2023-05-19T00:24:11.277Z,11.20
2023-05-19T00:26:37.959Z,11.20
2023-05-19T00:29:04.843Z,11.10
2023-05-19T00:31:32.914Z,11.10
2023-05-19T00:33:59.856Z,11.10
2023-05-19T00:36:26.591Z,11.00
2023-05-19T00:38:53.971Z,11.00
2023-05-19T00:41:21.109Z,11.00
2023-05-19T00:43:47.776Z,11.00
2023-05-19T00:46:14.488Z,11.00
2023-05-19T00:48:41.762Z,11.00
2023-05-19T00:51:08.702Z,11.00
2023-05-19T00:53:35.846Z,10.90
2023-05-19T00:56:03.172Z,10.90
2023-05-19T00:58:32.514Z,10.90
2023-05-19T01:01:03.655Z,10.90
2023-05-19T01:03:32.922Z,10.90
2023-05-19T01:06:04.895Z,10.90
2023-05-19T01:08:37.272Z,10.90
2023-05-19T01:11:05.434Z,10.90
2023-05-19T01:13:32.774Z,10.90
2023-05-19T01:16:20.479Z,10.80
2023-05-19T01:19:01.765Z,10.80
2023-05-19T01:22:06.865Z,10.80
2023-05-19T01:24:57.900Z,10.80
2023-05-19T01:27:56.612Z,10.80
2023-05-19T01:30:34.330Z,10.80
2023-05-19T01:33:04.631Z,10.80
2023-05-19T01:35:32.923Z,10.80
2023-05-19T01:38:01.356Z,10.70
2023-05-19T01:40:29.847Z,10.70
2023-05-19T01:42:58.794Z,10.70
2023-05-19T01:45:28.105Z,10.70
2023-05-19T01:47:56.857Z,10.70
2023-05-19T01:50:23.856Z,10.70
2023-05-19T01:52:51.153Z,10.70
2023-05-19T01:55:18.104Z,10.70
2023-05-19T01:57:55.665Z,10.70
2023-05-19T02:00:40.502Z,10.70
2023-05-19T02:03:22.724Z,10.70
2023-05-19T02:06:31.332Z,10.70
2023-05-19T02:09:20.923Z,10.70
2023-05-19T02:11:47.657Z,10.60
2023-05-19T02:14:19.953Z,10.60
2023-05-19T02:16:48.745Z,10.60
2023-05-19T02:19:29.323Z,10.60
2023-05-19T02:21:56.513Z,10.60
2023-05-19T02:24:23.356Z,10.50
2023-05-19T02:26:52.153Z,10.50
2023-05-19T02:29:19.554Z,10.50
2023-05-19T02:31:46.627Z,10.60
2023-05-19T02:34:13.479Z,10.50
2023-05-19T02:36:42.966Z,10.50
2023-05-19T02:39:10.992Z,10.50
2023-05-19T02:41:38.533Z,10.50
2023-05-19T02:44:05.299Z,10.50
2023-05-19T02:46:32.055Z,10.50
2023-05-19T02:48:58.782Z,10.50
2023-05-19T02:51:25.505Z,10.50
2023-05-19T02:53:52.125Z,10.50
2023-05-19T02:56:18.775Z,10.40
2023-05-19T02:58:45.517Z,10.40
2023-05-19T03:01:12.242Z,10.40
2023-05-19T03:03:38.954Z,10.40
2023-05-19T03:06:08.694Z,10.40
2023-05-19T03:08:35.923Z,10.30
2023-05-19T03:11:03.099Z,10.30
2023-05-19T03:13:29.963Z,10.30
2023-05-19T03:15:58.733Z,10.30
2023-05-19T03:18:26.803Z,10.30
2023-05-19T03:20:54.120Z,10.30
2023-05-19T03:23:22.276Z,10.30
2023-05-19T03:25:48.960Z,10.30
2023-05-19T03:28:15.857Z,10.20
2023-05-19T03:30:42.490Z,10.20
2023-05-19T03:33:09.426Z,10.20
2023-05-19T03:35:36.240Z,10.20
2023-05-19T03:38:03.001Z,10.20
2023-05-19T03:40:29.923Z,10.20
2023-05-19T03:42:56.737Z,10.20
2023-05-19T03:45:23.449Z,10.20
2023-05-19T03:47:50.218Z,10.20
2023-05-19T03:50:16.918Z,10.20
2023-05-19T03:52:46.392Z,10.20
2023-05-19T03:55:14.762Z,10.20
2023-05-19T03:57:41.690Z,10.20
2023-05-19T04:00:11.252Z,10.20
2023-05-19T04:02:38.331Z,10.20
2023-05-19T04:05:05.553Z,10.20
2023-05-19T04:07:32.165Z,10.10
2023-05-19T04:09:58.968Z,10.10
2023-05-19T04:12:25.727Z,10.10
2023-05-19T04:14:52.515Z,10.10
2023-05-19T04:17:19.160Z,10.20
2023-05-19T04:19:45.889Z,10.20
2023-05-19T04:22:12.540Z,10.20
2023-05-19T04:24:39.162Z,10.30
2023-05-19T04:27:11.746Z,10.30
2023-05-19T04:29:40.136Z,10.30
2023-05-19T04:32:07.720Z,10.30
2023-05-19T04:34:35.293Z,10.40
2023-05-19T04:37:02.510Z,10.40
2023-05-19T04:39:29.251Z,10.40
2023-05-19T04:41:56.613Z,10.40
2023-05-19T04:44:23.379Z,10.40
2023-05-19T04:46:54.182Z,10.50
2023-05-19T04:49:21.123Z,10.50
2023-05-19T04:51:50.152Z,10.50
2023-05-19T04:54:17.108Z,10.50
2023-05-19T04:56:43.900Z,10.50
2023-05-19T04:59:10.736Z,10.60
2023-05-19T05:01:40.391Z,10.60
2023-05-19T05:04:07.386Z,10.70
2023-05-19T05:06:34.235Z,10.80
2023-05-19T05:09:00.967Z,10.80
2023-05-19T05:11:27.919Z,10.90
2023-05-19T05:13:58.145Z,10.90
2023-05-19T05:16:25.892Z,10.90
2023-05-19T05:18:52.891Z,10.90
2023-05-19T05:21:20.020Z,10.90
2023-05-19T05:23:47.062Z,11.00
2023-05-19T05:26:23.240Z,11.00
2023-05-19T05:28:50.136Z,11.00
2023-05-19T05:31:17.035Z,11.00
2023-05-19T05:33:44.185Z,11.10
2023-05-19T05:36:11.002Z,11.10
2023-05-19T05:38:37.661Z,11.10
2023-05-19T05:41:04.574Z,11.20
2023-05-19T05:43:31.317Z,11.20
2023-05-19T05:45:58.153Z,11.30
2023-05-19T05:48:25.206Z,11.30
2023-05-19T05:50:52.760Z,11.50
2023-05-19T05:53:21.294Z,11.50
2023-05-19T05:55:48.428Z,11.50
2023-05-19T05:58:16.958Z,11.50
2023-05-19T06:00:44.027Z,11.60
2023-05-19T06:03:11.526Z,11.60
2023-05-19T06:05:38.832Z,11.70
2023-05-19T06:08:05.996Z,11.80
2023-05-19T06:10:33.339Z,11.80
2023-05-19T06:13:00.245Z,11.80
2023-05-19T06:15:26.983Z,11.90
2023-05-19T06:17:54.719Z,11.90
2023-05-19T06:20:21.880Z,12.00
2023-05-19T06:22:48.619Z,12.00
2023-05-19T06:25:15.706Z,12.00
2023-05-19T06:27:42.508Z,12.00
2023-05-19T06:30:09.697Z,12.10
2023-05-19T06:32:36.407Z,12.20
2023-05-19T06:35:03.330Z,12.20
2023-05-19T06:37:30.044Z,12.30
2023-05-19T06:39:56.768Z,12.30
2023-05-19T06:42:24.692Z,12.40
2023-05-19T06:44:52.651Z,12.20
2023-05-19T06:47:19.621Z,12.30
2023-05-19T06:49:46.684Z,12.30
2023-05-19T06:52:13.485Z,12.40
2023-05-19T06:54:40.100Z,12.50
2023-05-19T06:57:06.966Z,12.50
2023-05-19T06:59:33.776Z,12.50
2023-05-19T07:02:02.300Z,12.50
2023-05-19T07:04:29.002Z,12.50
2023-05-19T07:06:55.698Z,12.60
2023-05-19T07:09:22.430Z,12.60
2023-05-19T07:11:49.113Z,12.60
2023-05-19T07:14:15.928Z,12.60
2023-05-19T07:16:42.661Z,12.70
2023-05-19T07:19:09.426Z,12.80
2023-05-19T07:21:36.206Z,12.90
2023-05-19T07:24:02.893Z,13.00
2023-05-19T07:26:29.680Z,13.10
2023-05-19T07:28:57.724Z,13.30
2023-05-19T07:31:24.468Z,13.40
2023-05-19T07:33:53.740Z,13.50
2023-05-19T07:36:21.410Z,13.50
2023-05-19T07:38:48.160Z,13.40
2023-05-19T07:41:15.350Z,13.40
2023-05-19T07:43:42.944Z,13.30
2023-05-19T07:46:09.772Z,13.40
2023-05-19T07:48:37.024Z,13.60
2023-05-19T07:51:04.025Z,13.50
2023-05-19T07:53:30.736Z,13.60
2023-05-19T07:55:58.677Z,13.70
2023-05-19T07:58:25.598Z,13.80
2023-05-19T08:00:53.303Z,13.70
2023-05-19T08:03:20.966Z,13.70
2023-05-19T08:05:47.889Z,13.80
2023-05-19T08:08:16.621Z,13.90
2023-05-19T08:10:43.719Z,14.10
2023-05-19T08:13:10.419Z,14.10
2023-05-19T08:15:37.228Z,14.30
2023-05-19T08:18:05.257Z,14.30
2023-05-19T08:20:32.780Z,14.30
2023-05-19T08:22:59.919Z,14.30
2023-05-19T08:25:26.661Z,14.30
2023-05-19T08:27:53.361Z,14.50
2023-05-19T08:30:20.178Z,14.50
2023-05-19T08:32:48.567Z,14.60
2023-05-19T08:35:15.575Z,14.50
2023-05-19T08:37:42.266Z,14.60
2023-05-19T08:40:15.896Z,14.70
2023-05-19T08:42:42.596Z,14.80
2023-05-19T08:45:09.691Z,15.20
2023-05-19T08:47:36.565Z,15.20
2023-05-19T08:50:07.918Z,15.30
2023-05-19T08:52:53.077Z,15.50
2023-05-19T08:55:36.683Z,15.60
2023-05-19T08:58:04.536Z,15.70
2023-05-19T09:00:31.841Z,15.70
2023-05-19T09:03:16.956Z,15.90
2023-05-19T09:05:46.637Z,16.00
2023-05-19T09:08:13.849Z,16.40
2023-05-19T09:10:40.855Z,16.50
2023-05-19T09:13:07.541Z,16.60
2023-05-19T09:15:36.817Z,16.80
2023-05-19T09:18:11.341Z,17.00
2023-05-19T09:20:42.781Z,17.30
2023-05-19T09:23:17.597Z,17.70
2023-05-19T09:25:49.184Z,17.90
2023-05-19T09:28:25.991Z,18.50
2023-05-19T09:31:18.744Z,18.80
2023-05-19T09:33:46.232Z,19.10
2023-05-19T09:36:13.900Z,19.30
2023-05-19T09:38:41.227Z,19.00
2023-05-19T09:41:09.201Z,18.80
2023-05-19T09:43:36.553Z,19.00
2023-05-19T09:46:12.942Z,19.50
2023-05-19T09:48:41.234Z,20.00
2023-05-19T09:51:10.642Z,20.30
2023-05-19T09:53:37.338Z,20.80
2023-05-19T09:56:04.234Z,20.70
2023-05-19T09:58:37.645Z,21.00
2023-05-19T10:01:04.846Z,21.50
2023-05-19T10:03:35.069Z,21.10
2023-05-19T10:06:03.857Z,20.90
2023-05-19T10:08:31.841Z,20.80
2023-05-19T10:10:59.056Z,21.10
2023-05-19T10:13:26.977Z,20.20
2023-05-19T10:15:59.044Z,20.20
2023-05-19T10:18:28.052Z,20.30
2023-05-19T10:20:55.863Z,20.10
2023-05-19T10:23:23.583Z,19.90
2023-05-19T10:25:54.352Z,19.90
2023-05-19T10:28:25.808Z,19.50
2023-05-19T10:30:58.660Z,19.30
2023-05-19T10:33:47.400Z,19.20
2023-05-19T10:36:25.718Z,18.60
2023-05-19T10:39:44.977Z,18.50
2023-05-19T10:42:19.613Z,18.10
2023-05-19T10:45:10.922Z,18.50
2023-05-19T10:47:37.811Z,18.50
2023-05-19T10:50:06.604Z,18.80
2023-05-19T10:52:38.204Z,18.80
2023-05-19T10:55:08.626Z,18.80
2023-05-19T10:57:35.694Z,19.10
2023-05-19T11:00:29.429Z,19.50
2023-05-19T11:03:13.767Z,19.60
2023-05-19T11:05:40.923Z,19.70
2023-05-19T11:08:08.541Z,19.90
2023-05-19T11:10:35.407Z,20.70
2023-05-19T11:13:04.048Z,21.10
2023-05-19T11:15:35.469Z,21.00
2023-05-19T11:18:02.797Z,20.80
2023-05-19T11:20:34.579Z,21.10
2023-05-19T11:23:09.434Z,21.80
2023-05-19T11:25:47.028Z,22.80
2023-05-19T11:28:25.607Z,23.00
2023-05-19T11:30:54.678Z,23.20
2023-05-19T11:33:21.767Z,22.80
2023-05-19T11:35:50.963Z,22.10
2023-05-19T11:38:19.177Z,22.20
2023-05-19T11:40:47.265Z,22.00
2023-05-19T11:43:13.951Z,22.10
2023-05-19T11:45:40.689Z,22.70
2023-05-19T11:48:11.690Z,23.30
2023-05-19T11:50:41.073Z,24.10
2023-05-19T11:53:08.045Z,23.80
2023-05-19T11:55:34.891Z,24.10
2023-05-19T11:58:05.610Z,23.70
2023-05-19T12:00:39.446Z,23.80
2023-05-19T12:03:07.402Z,24.10
2023-05-19T12:05:42.078Z,25.00
2023-05-19T12:08:10.829Z,25.40
2023-05-19T12:10:39.413Z,25.40
2023-05-19T12:13:10.358Z,23.70
2023-05-19T12:15:39.288Z,23.40
2023-05-19T12:18:06.645Z,23.60
2023-05-19T12:20:35.525Z,24.00
2023-05-19T12:23:02.954Z,24.60
2023-05-19T12:25:31.226Z,24.50
2023-05-19T12:27:59.504Z,24.20
2023-05-19T12:30:30.537Z,24.20
2023-05-19T12:32:58.073Z,24.80
2023-05-19T12:35:29.939Z,24.20
2023-05-19T12:37:57.526Z,23.10
2023-05-19T12:40:24.326Z,23.00
2023-05-19T12:42:53.385Z,23.00
2023-05-19T12:45:23.338Z,22.90
2023-05-19T12:47:51.168Z,23.00
2023-05-19T12:50:17.958Z,22.90
2023-05-19T12:52:46.604Z,22.70
2023-05-19T12:55:14.774Z,22.30
2023-05-19T12:57:43.493Z,21.90
2023-05-19T13:00:21.020Z,21.20
2023-05-19T13:03:04.405Z,22.00
2023-05-19T13:05:33.880Z,22.70
2023-05-19T13:08:06.012Z,22.70
2023-05-19T13:10:34.608Z,21.70
2023-05-19T13:13:02.084Z,21.70
2023-05-19T13:15:37.691Z,22.80
2023-05-19T13:18:07.334Z,23.80
2023-05-19T13:20:34.710Z,24.40
2023-05-19T13:23:02.124Z,23.70
2023-05-19T13:25:29.159Z,23.30
2023-05-19T13:27:56.694Z,22.60
2023-05-19T13:30:24.095Z,22.10
2023-05-19T13:32:52.498Z,21.90
2023-05-19T13:35:19.902Z,21.60
2023-05-19T13:37:46.576Z,21.20
2023-05-19T13:40:13.780Z,20.40
2023-05-19T13:42:40.852Z,20.50
2023-05-19T13:45:08.266Z,20.30
2023-05-19T13:47:35.003Z,20.10
2023-05-19T13:50:04.367Z,20.40
2023-05-19T13:52:31.116Z,20.40
2023-05-19T13:54:57.867Z,20.40
2023-05-19T13:57:25.498Z,20.20
2023-05-19T14:00:01.741Z,20.40
2023-05-19T14:02:30.609Z,20.50
2023-05-19T14:04:57.665Z,20.30
2023-05-19T14:07:25.762Z,20.30
2023-05-19T14:09:52.752Z,20.40
2023-05-19T14:12:21.594Z,20.50
2023-05-19T14:14:52.006Z,20.40
2023-05-19T14:17:18.782Z,20.20
2023-05-19T14:19:45.595Z,20.20
2023-05-19T14:22:13.438Z,20.10
2023-05-19T14:24:41.459Z,20.20
2023-05-19T14:27:08.252Z,20.20
2023-05-19T14:29:35.333Z,20.30
2023-05-19T14:32:03.162Z,20.10
2023-05-19T14:34:30.444Z,20.20
2023-05-19T14:36:57.132Z,20.10
2023-05-19T14:39:23.820Z,20.40
2023-05-19T14:41:51.975Z,20.60
2023-05-19T14:44:18.783Z,20.50
2023-05-19T14:46:45.541Z,20.40
2023-05-19T14:49:12.262Z,20.30
2023-05-19T14:51:38.896Z,20.10
2023-05-19T14:54:05.624Z,19.90
2023-05-19T14:56:32.356Z,19.90
2023-05-19T14:58:59.007Z,19.90
2023-05-19T15:01:25.876Z,19.90
2023-05-19T15:03:52.628Z,19.80
2023-05-19T15:06:19.512Z,19.90
2023-05-19T15:08:46.334Z,19.80
2023-05-19T15:11:13.216Z,19.70
2023-05-19T15:13:39.931Z,19.70
2023-05-19T15:16:17.468Z,19.90
2023-05-19T15:18:45.103Z,19.80
2023-05-19T15:21:12.104Z,19.60
2023-05-19T15:23:38.807Z,19.50
2023-05-19T15:26:05.654Z,19.50
2023-05-19T15:28:33.483Z,19.60
2023-05-19T15:31:00.228Z,19.70
2023-05-19T15:33:27.013Z,19.70
2023-05-19T15:35:54.343Z,19.80
2023-05-19T15:38:21.097Z,20.10
2023-05-19T15:40:47.816Z,20.20
2023-05-19T15:43:14.673Z,19.80
2023-05-19T15:45:41.484Z,19.50
2023-05-19T15:48:08.355Z,19.40
2023-05-19T15:50:35.787Z,19.40
2023-05-19T15:53:02.873Z,19.50
2023-05-19T15:55:29.700Z,19.40
2023-05-19T15:57:56.455Z,19.40
2023-05-19T16:00:23.561Z,19.30
2023-05-19T16:02:50.683Z,19.20
2023-05-19T16:05:17.991Z,19.30
2023-05-19T16:07:45.105Z,19.30
2023-05-19T16:10:11.888Z,19.30
2023-05-19T16:12:38.709Z,19.20
2023-05-19T16:15:06.027Z,19.10
2023-05-19T16:17:32.901Z,19.20
2023-05-19T16:19:59.605Z,19.10
2023-05-19T16:22:27.097Z,19.20
2023-05-19T16:24:53.772Z,19.40
2023-05-19T16:27:20.506Z,19.20
2023-05-19T16:29:47.239Z,19.00
2023-05-19T16:32:14.062Z,19.00
2023-05-19T16:34:40.806Z,18.80
2023-05-19T16:37:07.575Z,18.50
2023-05-19T16:39:37.081Z,18.40
2023-05-19T16:42:04.671Z,18.30
2023-05-19T16:44:31.645Z,18.50
2023-05-19T16:46:58.359Z,18.30
2023-05-19T16:49:25.162Z,18.30
2023-05-19T16:51:53.202Z,18.40
2023-05-19T16:54:21.079Z,18.40
2023-05-19T16:56:47.787Z,18.40
2023-05-19T16:59:14.512Z,18.20
2023-05-19T17:01:41.342Z,18.20
2023-05-19T17:04:08.380Z,18.20
2023-05-19T17:06:35.123Z,18.20
2023-05-19T17:09:02.133Z,18.10
2023-05-19T17:11:28.802Z,18.10
2023-05-19T17:13:55.557Z,17.90
2023-05-19T17:16:23.520Z,17.80
2023-05-19T17:18:50.408Z,17.80
2023-05-19T17:21:17.770Z,17.80
2023-05-19T17:23:44.475Z,17.80
2023-05-19T17:26:11.543Z,17.70
2023-05-19T17:28:38.349Z,17.60
2023-05-19T17:31:12.317Z,17.70
2023-05-19T17:33:39.326Z,17.60
2023-05-19T17:36:06.932Z,17.60
2023-05-19T17:38:34.156Z,17.70
2023-05-19T17:41:02.211Z,17.80
2023-05-19T17:43:29.133Z,17.70
2023-05-19T17:45:56.326Z,17.50
2023-05-19T17:48:23.941Z,17.50
2023-05-19T17:50:50.900Z,17.50
2023-05-19T17:53:17.998Z,17.50
2023-05-19T17:55:51.153Z,17.40
2023-05-19T17:58:18.718Z,17.40
2023-05-19T18:00:46.072Z,17.50
2023-05-19T18:03:13.240Z,17.50
2023-05-19T18:05:41.164Z,17.50
2023-05-19T18:08:09.554Z,17.40
2023-05-19T18:10:37.895Z,17.40
2023-05-19T18:13:05.277Z,17.40
2023-05-19T18:15:32.111Z,17.40
2023-05-19T18:17:59.076Z,17.30
2023-05-19T18:20:25.865Z,17.30
2023-05-19T18:22:52.668Z,17.20
2023-05-19T18:25:20.893Z,17.10
2023-05-19T18:27:47.657Z,17.10
2023-05-19T18:30:14.500Z,17.10
2023-05-19T18:32:41.488Z,17.00
2023-05-19T18:35:09.255Z,17.00
2023-05-19T18:37:36.361Z,16.90
2023-05-19T18:40:03.130Z,16.90
2023-05-19T18:42:29.840Z,16.90
2023-05-19T18:44:57.026Z,16.80
2023-05-19T18:47:23.862Z,16.70
2023-05-19T18:49:50.508Z,16.60
2023-05-19T18:52:18.952Z,16.60
2023-05-19T18:54:47.039Z,16.50
2023-05-19T18:57:16.960Z,16.50
2023-05-19T18:59:43.696Z,16.40
2023-05-19T19:02:10.597Z,16.30
2023-05-19T19:04:37.251Z,16.20
2023-05-19T19:07:05.084Z,16.20
2023-05-19T19:09:31.707Z,16.20
2023-05-19T19:11:58.484Z,16.10
2023-05-19T19:14:25.115Z,16.10
2023-05-19T19:16:51.891Z,16.00
2023-05-19T19:19:18.822Z,16.00
2023-05-19T19:21:45.569Z,16.00
2023-05-19T19:24:13.680Z,15.90
2023-05-19T19:26:40.733Z,15.90
2023-05-19T19:29:07.440Z,15.90
2023-05-19T19:31:34.218Z,15.90
2023-05-19T19:34:03.980Z,15.80
2023-05-19T19:36:31.865Z,15.80
2023-05-19T19:38:59.033Z,15.70
2023-05-19T19:41:28.115Z,15.70
2023-05-19T19:43:54.850Z,15.70
2023-05-19T19:46:21.802Z,15.60
2023-05-19T19:48:48.511Z,15.60
2023-05-19T19:51:15.148Z,15.60
2023-05-19T19:53:41.890Z,15.50
2023-05-19T19:56:08.654Z,15.60
2023-05-19T19:58:35.455Z,15.50
2023-05-19T20:01:03.493Z,15.60
2023-05-19T20:03:31.531Z,15.60
2023-05-19T20:05:58.513Z,15.60
2023-05-19T20:08:26.289Z,15.60
2023-05-19T20:10:53.659Z,15.60
2023-05-19T20:13:20.681Z,15.60
2023-05-19T20:15:47.527Z,15.50
2023-05-19T20:18:14.752Z,15.60
2023-05-19T20:20:42.478Z,15.50
2023-05-19T20:23:09.371Z,15.50
2023-05-19T20:25:57.832Z,15.40
2023-05-19T20:28:29.650Z,15.50
2023-05-19T20:30:56.407Z,15.40
2023-05-19T20:33:23.065Z,15.40
2023-05-19T20:35:49.808Z,15.40
2023-05-19T20:38:16.707Z,15.40
2023-05-19T20:40:43.358Z,15.40
2023-05-19T20:43:10.128Z,15.40
2023-05-19T20:45:37.036Z,15.40
2023-05-19T20:48:04.325Z,15.40
2023-05-19T20:50:31.995Z,15.40
2023-05-19T20:52:59.055Z,15.40
2023-05-19T20:55:26.110Z,15.40
2023-05-19T20:57:52.721Z,15.40
2023-05-19T21:00:19.485Z,15.40
2023-05-19T21:02:46.136Z,15.30
2023-05-19T21:05:12.902Z,15.30
2023-05-19T21:07:39.622Z,15.30
2023-05-19T21:10:07.134Z,15.20
2023-05-19T21:12:34.037Z,15.10
2023-05-19T21:15:02.004Z,15.10
2023-05-19T21:17:28.865Z,15.10
2023-05-19T21:19:57.998Z,15.00
2023-05-19T21:22:25.456Z,15.00
2023-05-19T21:24:52.426Z,15.00
2023-05-19T21:27:19.082Z,15.00
2023-05-19T21:29:45.879Z,15.00
2023-05-19T21:32:12.667Z,15.00
2023-05-19T21:34:39.283Z,14.90
2023-05-19T21:37:05.959Z,14.90
2023-05-19T21:39:32.753Z,14.80
2023-05-19T21:41:59.495Z,14.80
2023-05-19T21:44:26.338Z,14.80
2023-05-19T21:46:53.058Z,14.80
2023-05-19T21:49:20.524Z,14.80
2023-05-19T21:51:47.293Z,14.80
2023-05-19T21:54:13.996Z,14.70
2023-05-19T21:56:40.689Z,14.70
2023-05-19T21:59:07.680Z,14.60
2023-05-19T22:01:34.587Z,14.60
2023-05-19T22:04:01.393Z,14.60
2023-05-19T22:06:34.503Z,14.60
2023-05-19T22:09:02.565Z,14.50
2023-05-19T22:11:29.477Z,14.50
2023-05-19T22:13:56.341Z,14.60
2023-05-19T22:16:23.109Z,14.50
2023-05-19T22:18:49.874Z,14.50
2023-05-19T22:21:16.732Z,14.50
2023-05-19T22:23:43.900Z,14.50
2023-05-19T22:26:10.948Z,14.50
2023-05-19T22:28:37.696Z,14.50
2023-05-19T22:31:04.511Z,14.60
2023-05-19T22:33:31.229Z,14.60
2023-05-19T22:35:57.964Z,14.60
2023-05-19T22:38:24.621Z,14.60
2023-05-19T22:40:51.277Z,14.60
2023-05-19T22:43:18.026Z,14.60
2023-05-19T22:45:44.882Z,14.60
2023-05-19T22:48:11.676Z,14.70
2023-05-19T22:50:38.465Z,14.60
2023-05-19T22:53:05.135Z,14.70
2023-05-19T22:55:32.377Z,14.70
2023-05-19T22:57:59.368Z,14.70
2023-05-19T23:00:26.098Z,14.70
2023-05-19T23:02:52.929Z,14.70
2023-05-19T23:05:19.918Z,14.70
2023-05-19T23:07:46.551Z,14.70
2023-05-19T23:10:13.274Z,14.70
2023-05-19T23:12:40.143Z,14.70
2023-05-19T23:15:08.418Z,14.70
2023-05-19T23:17:35.409Z,14.60
2023-05-19T23:20:02.520Z,14.60
2023-05-19T23:22:29.447Z,14.60
2023-05-19T23:24:56.205Z,14.60
2023-05-19T23:27:22.943Z,14.60
2023-05-19T23:29:51.932Z,14.60
2023-05-19T23:32:18.664Z,14.60
2023-05-19T23:34:47.358Z,14.60
2023-05-19T23:37:14.096Z,14.50
2023-05-19T23:39:40.767Z,14.50
2023-05-19T23:42:07.438Z,14.60
2023-05-19T23:44:34.184Z,14.50
2023-05-19T23:47:01.262Z,14.50
2023-05-19T23:49:28.056Z,14.50
2023-05-19T23:51:54.753Z,14.50
2023-05-19T23:54:21.436Z,14.40
2023-05-19T23:56:48.138Z,14.50
2023-05-19T23:59:14.786Z,14.40
